Frankford, Canada
Current Conditions -  °F | °C
As of 6:00 PM on Tuesday 27 Jan 2015 (Local Time) from CYTR Reporting Station
Few Clouds Few Clouds  
Wind Chill: 11°   Ceiling: Unl
Heat Index: 18°   Visibility: 15mi
Dew Point: -11°   Wind: 5mph
Humidity: 27%   Direction: 50°NE
Pressure: 30.09"   Gusts: NA
Location:  44.2°N, 77.6°W
Report Text: CYTR 272300Z 05004KT 15SM FEW120 FEW250 M08/M24 A3009 RMK AC1CI0 SLP195
Loading
Personal Weather Stations






























Interactive Weather Map New forecast layout! Learn more

10-Day Weather Forecast

Advertisements
Track Severe Weather on mobile